Time;durP1;ratioP1;P1;durP2;ratioP2;P2;SDS_P1;SDS_P2;PMS_P1;PMS_P2;Temp;Humidity;BMP_temperature;BMP_pressure;BME280_temperature;BME280_humidity;BME280_pressure;Samples;Min_cycle;Max_cycle;Signal;HPM_P1;HPM_P2
2022/10/16 00:01:08;;;;;;;9.55;4.70;;;;;;;11.40;100.00;100957.88;5052943;28;20617;-56
2022/10/16 00:03:33;;;;;;;8.13;5.00;;;;;;;11.40;100.00;100957.03;5045919;28;20025;-54
2022/10/16 00:06:00;;;;;;;5.78;4.18;;;;;;;11.41;100.00;100946.28;5052915;28;20112;-57
2022/10/16 00:08:26;;;;;;;7.70;5.32;;;;;;;11.41;100.00;100950.78;5053012;28;20159;-55
2022/10/16 00:10:51;;;;;;;10.23;5.07;;;;;;;11.42;100.00;100947.13;5052737;28;20453;-54
2022/10/16 00:13:17;;;;;;;12.15;5.18;;;;;;;11.41;100.00;100946.28;5045189;28;20616;-56
2022/10/16 00:15:43;;;;;;;9.63;4.80;;;;;;;11.41;100.00;100938.31;5052921;28;20021;-53
2022/10/16 00:18:09;;;;;;;8.90;4.72;;;;;;;11.41;100.00;100951.59;5053110;28;20352;-55
2022/10/16 00:20:36;;;;;;;9.32;4.45;;;;;;;11.40;100.00;100954.38;5051285;28;20036;-54
2022/10/16 00:23:03;;;;;;;8.50;4.47;;;;;;;11.38;100.00;100951.84;5045144;28;20429;-55
2022/10/16 00:25:28;;;;;;;9.68;4.43;;;;;;;11.38;100.00;100957.16;5052150;28;20074;-55
2022/10/16 00:27:54;;;;;;;7.68;4.40;;;;;;;11.37;100.00;100951.97;5052502;28;20032;-55
2022/10/16 00:30:19;;;;;;;6.72;4.53;;;;;;;11.38;100.00;100953.66;5043652;28;20029;-55
2022/10/16 00:32:44;;;;;;;10.15;4.97;;;;;;;11.38;100.00;100956.31;5052903;28;20432;-55
2022/10/16 00:35:10;;;;;;;10.00;4.55;;;;;;;11.36;100.00;100951.13;5049865;28;20419;-56
2022/10/16 00:37:35;;;;;;;9.60;4.40;;;;;;;11.35;100.00;100952.06;5044476;28;20031;-56
2022/10/16 00:40:00;;;;;;;12.23;4.20;;;;;;;11.33;100.00;100955.84;5047572;28;20033;-56
2022/10/16 00:42:26;;;;;;;8.07;4.00;;;;;;;11.30;100.00;100957.75;5052559;28;20047;-56
2022/10/16 00:44:55;;;;;;;7.13;4.07;;;;;;;11.30;100.00;100959.56;5049126;28;20396;-55
2022/10/16 00:47:28;;;;;;;9.35;4.03;;;;;;;11.33;100.00;100963.81;5044584;28;20029;-56
2022/10/16 00:50:00;;;;;;;5.05;3.88;;;;;;;11.29;100.00;100953.41;5096335;22;20029;-56
2022/10/16 00:52:26;;;;;;;9.35;4.30;;;;;;;11.28;100.00;100964.16;5077308;28;20036;-56
2022/10/16 00:54:52;;;;;;;6.50;3.95;;;;;;;11.27;100.00;100958.03;5077173;28;20009;-57
2022/10/16 00:57:18;;;;;;;7.85;4.10;;;;;;;11.27;100.00;100955.34;5076680;28;20044;-57
2022/10/16 00:59:43;;;;;;;6.22;3.88;;;;;;;11.26;100.00;100961.63;5077759;28;20021;-57
2022/10/16 01:02:13;;;;;;;5.60;3.88;;;;;;;11.25;100.00;100954.59;5077015;28;20017;-56
2022/10/16 01:04:42;;;;;;;7.28;3.88;;;;;;;11.23;100.00;100953.06;5077359;28;20025;-57
2022/10/16 01:07:29;;;;;;;9.27;3.80;;;;;;;11.22;100.00;100948.69;5077294;28;20025;-56
2022/10/16 01:10:07;;;;;;;10.25;3.92;;;;;;;11.20;100.00;100948.81;5077351;28;20029;-57
2022/10/16 01:12:54;;;;;;;4.90;3.40;;;;;;;11.19;100.00;100949.78;5065814;28;20028;-57
2022/10/16 01:15:27;;;;;;;7.53;3.53;;;;;;;11.18;100.00;100953.41;5076617;28;20023;-56
2022/10/16 01:18:03;;;;;;;5.32;3.50;;;;;;;11.16;100.00;100951.81;5077502;28;20021;-58
2022/10/16 01:20:34;;;;;;;7.32;4.15;;;;;;;11.13;100.00;100950.25;5076352;28;20076;-58
2022/10/16 01:23:24;;;;;;;6.25;3.50;;;;;;;11.14;100.00;100956.41;5077281;28;20016;-57
2022/10/16 01:26:04;;;;;;;5.90;3.70;;;;;;;11.13;100.00;100966.19;5065739;28;20013;-58
2022/10/16 01:28:39;;;;;;;5.88;3.42;;;;;;;11.09;100.00;100962.06;5061648;28;20021;-58
2022/10/16 01:31:05;;;;;;;7.78;3.55;;;;;;;11.09;100.00;100959.41;5069634;28;20014;-58
2022/10/16 01:33:38;;;;;;;6.50;3.67;;;;;;;11.07;100.00;100964.00;5073162;28;20027;-58
2022/10/16 01:36:11;;;;;;;4.90;3.40;;;;;;;11.07;100.00;100958.69;5077184;28;20021;-59
2022/10/16 01:38:39;;;;;;;4.85;3.33;;;;;;;11.07;100.00;100953.38;5079442;28;20017;-56
2022/10/16 01:41:20;;;;;;;6.90;3.45;;;;;;;11.07;100.00;100961.34;5080863;28;20056;-57
2022/10/16 01:43:50;;;;;;;4.72;3.28;;;;;;;11.05;100.00;100960.63;5081215;28;20041;-57
2022/10/16 01:46:20;;;;;;;4.07;3.45;;;;;;;11.07;100.00;100970.19;5079987;28;20021;-57
2022/10/16 01:48:47;;;;;;;7.47;3.35;;;;;;;11.08;100.00;100950.59;5078194;28;20032;-58
2022/10/16 01:51:15;;;;;;;3.95;3.30;;;;;;;11.09;100.00;100943.47;5060793;28;20025;-58
2022/10/16 01:53:43;;;;;;;5.15;3.30;;;;;;;11.09;100.00;100941.69;5060582;28;20041;-57
2022/10/16 01:56:11;;;;;;;6.68;3.10;;;;;;;11.08;100.00;100945.28;5060849;28;20069;-58
2022/10/16 01:58:45;;;;;;;7.45;3.50;;;;;;;11.13;100.00;100952.06;5060149;28;20033;-58
2022/10/16 02:01:13;;;;;;;6.45;3.20;;;;;;;11.11;100.00;100949.53;5060978;28;20025;-58
2022/10/16 02:03:42;;;;;;;6.68;3.53;;;;;;;11.12;100.00;100956.53;5052809;28;20021;-59
2022/10/16 02:06:08;;;;;;;;;;;;;;;11.18;100.00;100961.38;5061159;28;20051;-58
2022/10/16 02:08:34;;;;;;;8.30;3.15;;;;;;;11.16;100.00;100959.78;5060286;28;19905;-58
2022/10/16 02:11:01;;;;;;;5.30;2.70;;;;;;;11.15;100.00;100971.41;5060678;28;20013;-57
2022/10/16 02:13:45;;;;;;;5.30;2.92;;;;;;;11.15;100.00;100963.44;5060388;28;20093;-57
2022/10/16 02:16:12;;;;;;;5.15;3.13;;;;;;;11.16;100.00;100965.09;5060234;28;20037;-59
2022/10/16 02:18:37;;;;;;;4.25;2.85;;;;;;;11.15;100.00;100963.44;5060087;28;20068;-59
2022/10/16 02:21:25;;;;;;;9.95;2.83;;;;;;;11.14;100.00;100959.06;5060349;28;20183;-58
2022/10/16 02:23:56;;;;;;;6.85;2.95;;;;;;;11.13;100.00;100958.22;5050151;28;20014;-57
2022/10/16 02:26:30;;;;;;;5.55;2.70;;;;;;;11.11;100.00;100954.84;5059528;28;20028;-59
2022/10/16 02:29:00;;;;;;;5.00;3.60;;;;;;;11.10;100.00;100955.81;5060117;28;20014;-59
2022/10/16 02:31:31;;;;;;;5.78;2.90;;;;;;;11.08;100.00;100960.41;5059517;28;20018;-58
2022/10/16 02:33:59;;;;;;;5.40;2.60;;;;;;;11.05;100.00;100955.31;5059664;28;20009;-56
2022/10/16 02:36:25;;;;;;;5.10;2.60;;;;;;;11.07;100.00;100970.19;5059850;28;20033;-58
2022/10/16 02:38:52;;;;;;;4.00;2.83;;;;;;;11.03;100.00;100968.72;5059603;28;20013;-58
2022/10/16 02:41:18;;;;;;;4.15;2.67;;;;;;;11.02;100.00;100971.50;5060169;28;20025;-58
2022/10/16 02:43:43;;;;;;;3.13;2.53;;;;;;;11.05;100.00;100968.59;5059562;28;20037;-58
2022/10/16 02:46:09;;;;;;;5.20;2.60;;;;;;;11.02;100.00;100966.16;5059273;28;20015;-58
2022/10/16 02:48:34;;;;;;;4.05;2.30;;;;;;;11.01;100.00;100961.84;5058949;28;20020;-58
2022/10/16 02:51:00;;;;;;;3.08;2.28;;;;;;;11.00;100.00;100957.47;5059561;28;20089;-58
2022/10/16 02:53:25;;;;;;;4.22;2.30;;;;;;;10.99;100.00;100963.75;5059716;28;20030;-58
2022/10/16 02:55:50;;;;;;;7.72;2.80;;;;;;;10.98;100.00;100959.41;5059202;28;20025;-58
2022/10/16 02:58:16;;;;;;;7.43;3.00;;;;;;;10.95;100.00;100951.66;5059503;28;20044;-58
2022/10/16 03:00:42;;;;;;;4.20;2.53;;;;;;;10.95;100.00;100955.16;5059284;28;20024;-58
2022/10/16 03:03:07;;;;;;;4.22;2.60;;;;;;;10.93;100.00;100971.22;5059352;28;20029;-58
2022/10/16 03:05:32;;;;;;;3.75;2.33;;;;;;;10.95;100.00;100972.94;5059023;28;20016;-59
2022/10/16 03:08:00;;;;;;;9.32;2.35;;;;;;;10.93;100.00;100975.69;5059459;28;20017;-59
2022/10/16 03:10:25;;;;;;;3.25;2.28;;;;;;;10.91;100.00;100969.66;5058815;28;20365;-58
2022/10/16 03:12:50;;;;;;;4.15;2.47;;;;;;;10.89;100.00;100966.25;5058893;28;20013;-58
2022/10/16 03:15:16;;;;;;;4.53;2.55;;;;;;;10.87;100.00;100960.22;5059237;28;20020;-58
2022/10/16 03:17:41;;;;;;;4.32;2.47;;;;;;;10.89;100.00;100971.56;5058532;28;20075;-58
2022/10/16 03:20:07;;;;;;;4.22;2.30;;;;;;;10.89;100.00;100980.41;5059312;28;20018;-58
2022/10/16 03:22:32;;;;;;;3.28;2.40;;;;;;;10.88;100.00;100981.34;5057818;28;20021;-59
2022/10/16 03:24:57;;;;;;;3.97;2.30;;;;;;;10.89;100.00;100982.19;5059142;28;20021;-58
2022/10/16 03:27:23;;;;;;;4.93;2.30;;;;;;;10.87;100.00;100984.13;5059114;28;20021;-59
2022/10/16 03:29:48;;;;;;;5.70;2.38;;;;;;;10.87;100.00;100992.09;5058459;28;20032;-59
2022/10/16 03:32:13;;;;;;;3.83;2.30;;;;;;;10.83;100.00;100988.84;5058665;28;20029;-58
2022/10/16 03:34:38;;;;;;;4.05;2.50;;;;;;;10.87;100.00;101003.56;5058896;28;20069;-58
2022/10/16 03:37:04;;;;;;;3.92;2.30;;;;;;;10.86;100.00;100993.09;5058758;28;20013;-59
2022/10/16 03:39:29;;;;;;;3.35;1.95;;;;;;;10.88;100.00;100992.00;5058426;28;20022;-58
2022/10/16 03:41:54;;;;;;;6.32;2.30;;;;;;;10.87;100.00;100998.25;5059065;28;20073;-56
2022/10/16 03:44:19;;;;;;;4.18;2.30;;;;;;;10.88;100.00;101002.63;5056274;28;20024;-58
2022/10/16 03:46:45;;;;;;;4.63;2.10;;;;;;;10.88;100.00;101013.25;5058819;28;20020;-58
2022/10/16 03:49:10;;;;;;;4.75;2.10;;;;;;;10.88;100.00;101010.59;5058172;28;20033;-58
2022/10/16 03:51:36;;;;;;;3.55;2.58;;;;;;;10.89;100.00;101004.31;5058855;28;20029;-58
2022/10/16 03:54:01;;;;;;;2.20;1.98;;;;;;;10.88;100.00;101002.63;5058067;28;20016;-59
2022/10/16 03:56:26;;;;;;;2.40;2.10;;;;;;;10.90;100.00;101008.66;5058833;28;20045;-58
2022/10/16 03:58:51;;;;;;;4.97;2.00;;;;;;;10.91;100.00;101012.19;5058280;28;20032;-58
2022/10/16 04:01:17;;;;;;;3.20;2.00;;;;;;;10.89;100.00;101012.28;5057751;28;20048;-59
2022/10/16 04:03:45;;;;;;;2.65;2.40;;;;;;;10.91;100.00;101021.00;5057805;28;20024;-58
2022/10/16 04:06:10;;;;;;;4.93;1.83;;;;;;;10.91;100.00;101009.53;5057172;28;20029;-58
2022/10/16 04:08:36;;;;;;;6.35;2.50;;;;;;;10.92;100.00;101014.72;5058428;28;20021;-58
2022/10/16 04:11:02;;;;;;;10.40;2.33;;;;;;;10.92;100.00;101017.38;5046449;28;20025;-59
2022/10/16 04:13:27;;;;;;;3.47;2.10;;;;;;;10.95;100.00;101012.78;5058082;28;20039;-58
2022/10/16 04:15:53;;;;;;;4.25;2.10;;;;;;;10.92;100.00;101020.03;5054204;28;20017;-58
2022/10/16 04:18:18;;;;;;;5.13;2.30;;;;;;;10.95;100.00;101016.28;5058076;28;20081;-58
2022/10/16 04:20:43;;;;;;;3.42;2.25;;;;;;;10.96;100.00;101018.00;5058395;28;20033;-58
2022/10/16 04:23:08;;;;;;;4.40;2.60;;;;;;;10.98;100.00;101018.72;5057494;28;20034;-58
2022/10/16 04:25:34;;;;;;;3.47;2.33;;;;;;;10.99;100.00;101019.56;5058058;28;20018;-58
2022/10/16 04:27:59;;;;;;;3.20;2.17;;;;;;;10.99;100.00;101016.91;5057780;28;20042;-58
2022/10/16 04:30:25;;;;;;;6.20;2.92;;;;;;;10.99;100.00;101007.13;5058080;28;20024;-57
2022/10/16 04:32:51;;;;;;;5.10;2.47;;;;;;;11.01;100.00;101015.00;5057373;28;20044;-58
2022/10/16 04:35:18;;;;;;;3.58;2.60;;;;;;;11.00;100.00;101015.94;5057974;28;20040;-58
2022/10/16 04:37:43;;;;;;;4.85;2.63;;;;;;;11.01;100.00;101029.13;5057909;28;20040;-59
2022/10/16 04:40:09;;;;;;;4.55;2.80;;;;;;;11.03;100.00;101029.00;5057600;28;20033;-59
2022/10/16 04:42:34;;;;;;;3.15;2.30;;;;;;;11.04;100.00;101034.22;5057766;28;20033;-56
2022/10/16 04:44:59;;;;;;;6.03;2.50;;;;;;;11.05;100.00;101038.53;5057431;28;20035;-58
2022/10/16 04:47:27;;;;;;;3.75;2.60;;;;;;;11.03;100.00;101039.66;5057839;28;20018;-56
2022/10/16 04:49:52;;;;;;;5.22;2.50;;;;;;;11.02;100.00;101041.44;5049444;28;20030;-57
2022/10/16 04:52:18;;;;;;;5.80;2.47;;;;;;;11.03;100.00;101040.47;5053765;28;20119;-59
2022/10/16 04:54:44;;;;;;;6.43;2.70;;;;;;;11.03;100.00;101052.94;5057921;28;20041;-57
2022/10/16 04:57:10;;;;;;;5.28;2.72;;;;;;;11.03;100.00;101052.94;5057510;28;20022;-57
2022/10/16 04:59:36;;;;;;;4.75;2.47;;;;;;;11.03;100.00;101053.78;5057812;28;20028;-58
2022/10/16 05:02:01;;;;;;;5.43;2.90;;;;;;;11.04;100.00;101062.59;5057249;28;20077;-58
2022/10/16 05:04:26;;;;;;;3.60;2.70;;;;;;;11.04;100.00;101067.91;5057488;28;20025;-56
2022/10/16 05:06:51;;;;;;;4.45;2.60;;;;;;;11.02;100.00;101073.31;5057394;28;20006;-57
2022/10/16 05:09:17;;;;;;;7.38;3.03;;;;;;;11.04;100.00;101079.41;5056954;28;20037;-55
2022/10/16 05:11:42;;;;;;;3.65;2.67;;;;;;;11.04;100.00;101075.88;5057385;28;20037;-56
2022/10/16 05:14:08;;;;;;;4.68;2.80;;;;;;;11.05;100.00;101080.25;5061276;28;20081;-57
2022/10/16 05:16:33;;;;;;;5.22;2.67;;;;;;;11.03;100.00;101076.84;5061121;28;20037;-58
2022/10/16 05:18:58;;;;;;;4.63;2.78;;;;;;;11.03;100.00;101076.84;5061504;28;20085;-57
2022/10/16 05:21:23;;;;;;;6.28;2.70;;;;;;;11.00;100.00;101077.06;5061466;28;20009;-58
2022/10/16 05:23:49;;;;;;;4.97;2.45;;;;;;;11.01;100.00;101076.13;5060554;28;20045;-58
2022/10/16 05:26:14;;;;;;;7.13;2.90;;;;;;;11.01;100.00;101079.63;5061334;28;20033;-55
2022/10/16 05:28:39;;;;;;;5.70;2.85;;;;;;;10.97;100.00;101078.13;5061022;28;20021;-58
2022/10/16 05:31:09;;;;;;;7.93;2.50;;;;;;;10.95;100.00;101074.75;5061402;28;20045;-57
2022/10/16 05:33:34;;;;;;;7.95;2.72;;;;;;;10.96;100.00;101095.06;5061187;28;20032;-58
2022/10/16 05:36:05;;;;;;;6.78;2.70;;;;;;;10.97;100.00;101096.75;5060641;28;20021;-58
2022/10/16 05:38:30;;;;;;;8.90;2.85;;;;;;;10.96;100.00;101089.75;5061196;28;20021;-58
2022/10/16 05:40:56;;;;;;;12.30;2.97;;;;;;;10.95;100.00;101095.19;5059403;28;20044;-56
2022/10/16 05:43:21;;;;;;;4.65;2.70;;;;;;;10.93;100.00;101097.94;5061129;28;20021;-58
2022/10/16 05:45:57;;;;;;;4.60;2.40;;;;;;;10.96;100.00;101112.81;5060808;28;20053;-58
2022/10/16 05:48:23;;;;;;;6.05;2.45;;;;;;;10.94;100.00;101118.22;5053307;28;20033;-58
2022/10/16 05:50:48;;;;;;;7.30;2.88;;;;;;;10.95;100.00;101122.59;5058190;28;20041;-58
2022/10/16 05:53:13;;;;;;;4.90;2.72;;;;;;;10.94;100.00;101120.88;5060012;28;20028;-57
2022/10/16 05:55:38;;;;;;;4.22;2.65;;;;;;;10.89;100.00;101118.59;5054292;28;20060;-58
2022/10/16 05:58:04;;;;;;;4.85;2.75;;;;;;;10.91;100.00;101132.59;5060852;28;20014;-58
2022/10/16 06:00:29;;;;;;;4.18;2.88;;;;;;;10.92;100.00;101136.09;5060004;28;20019;-58
2022/10/16 06:02:54;;;;;;;12.88;3.00;;;;;;;10.92;100.00;101134.31;5060071;28;20080;-58
2022/10/16 06:05:19;;;;;;;5.35;2.83;;;;;;;10.91;100.00;101145.91;5060120;28;20036;-58
2022/10/16 06:07:45;;;;;;;7.95;3.03;;;;;;;10.92;100.00;101141.41;5060509;28;20051;-59
2022/10/16 06:10:10;;;;;;;5.63;3.05;;;;;;;10.91;100.00;101151.22;5060554;28;20063;-58
2022/10/16 06:12:35;;;;;;;5.32;3.10;;;;;;;10.90;100.00;101149.50;5056484;28;20021;-59
2022/10/16 06:15:00;;;;;;;9.70;3.00;;;;;;;10.91;100.00;101161.84;5060128;28;20013;-60
2022/10/16 06:17:26;;;;;;;7.28;2.85;;;;;;;10.91;100.00;101164.50;5060038;28;20025;-60
2022/10/16 06:19:51;;;;;;;6.90;2.90;;;;;;;10.90;100.00;101170.75;5071593;28;20041;-59
2022/10/16 06:22:16;;;;;;;7.07;3.00;;;;;;;10.92;100.00;101179.50;5058269;28;20048;-60
2022/10/16 06:24:42;;;;;;;4.05;2.38;;;;;;;10.90;100.00;101177.91;5055669;28;20040;-59
2022/10/16 06:27:07;;;;;;;4.30;2.65;;;;;;;10.89;100.00;101179.72;5059342;28;20028;-59
2022/10/16 06:29:32;;;;;;;5.18;2.80;;;;;;;10.90;100.00;101184.06;5058510;28;20034;-60
2022/10/16 06:31:57;;;;;;;6.60;2.80;;;;;;;10.90;100.00;101184.06;5057242;28;20120;-58
2022/10/16 06:34:23;;;;;;;4.10;2.78;;;;;;;10.91;100.00;101185.75;5058623;28;20033;-59
2022/10/16 06:36:48;;;;;;;3.72;2.67;;;;;;;10.91;100.00;101204.34;5058475;28;20056;-59
2022/10/16 06:39:13;;;;;;;7.03;3.13;;;;;;;10.91;100.00;101193.72;5058435;28;20013;-59
2022/10/16 06:41:39;;;;;;;4.50;2.72;;;;;;;10.93;100.00;101197.13;5054875;28;20029;-59
2022/10/16 06:44:07;;;;;;;7.53;2.75;;;;;;;10.93;100.00;101207.75;5058258;28;20048;-59
2022/10/16 06:46:33;;;;;;;7.72;3.30;;;;;;;10.92;100.00;101211.38;5042875;28;20093;-59
2022/10/16 06:48:58;;;;;;;7.18;2.90;;;;;;;10.95;100.00;101220.09;5057883;28;20049;-58
2022/10/16 06:51:25;;;;;;;7.03;2.80;;;;;;;10.97;100.00;101229.63;5057497;28;20280;-59
2022/10/16 06:53:53;;;;;;;7.82;3.00;;;;;;;10.92;100.00;101219.34;5057703;28;20033;-57
2022/10/16 06:56:24;;;;;;;5.65;3.00;;;;;;;10.99;100.00;101237.50;5056194;28;20053;-60
2022/10/16 06:58:50;;;;;;;7.07;3.00;;;;;;;11.02;100.00;101237.28;5056396;28;20022;-60
2022/10/16 07:01:17;;;;;;;7.53;2.88;;;;;;;11.04;100.00;101230.03;5045652;28;20087;-60
2022/10/16 07:03:44;;;;;;;7.65;2.83;;;;;;;11.07;100.00;101236.00;5055968;28;20036;-61
2022/10/16 07:06:12;;;;;;;7.70;2.90;;;;;;;11.09;100.00;101238.53;5052777;28;20061;-60
2022/10/16 07:08:40;;;;;;;5.65;3.10;;;;;;;11.10;100.00;101226.94;5057685;28;20045;-61
2022/10/16 07:11:08;;;;;;;6.18;2.88;;;;;;;11.07;100.00;101236.00;5057573;28;20030;-59
2022/10/16 07:13:38;;;;;;;8.35;2.90;;;;;;;11.18;100.00;101248.50;5057385;28;20040;-60
2022/10/16 07:16:16;;;;;;;;;;;;;;;11.24;100.00;101247.19;5057431;28;20030;-61
2022/10/16 07:18:45;;;;;;;5.70;3.10;;;;;;;11.29;100.00;101264.53;5056167;28;19937;-60
2022/10/16 07:21:13;;;;;;;8.43;3.03;;;;;;;11.34;100.00;101264.19;5054690;28;20068;-60
2022/10/16 07:23:39;;;;;;;6.10;3.13;;;;;;;11.39;100.00;101255.88;5051653;28;20021;-60
2022/10/16 07:26:06;;;;;;;6.05;3.10;;;;;;;11.43;100.00;101266.16;5048283;28;20093;-59
2022/10/16 07:28:32;;;;;;;7.72;3.03;;;;;;;11.51;100.00;101272.72;5036616;28;20073;-49
2022/10/16 07:31:04;;;;;;;6.28;3.10;;;;;;;11.54;100.00;101276.03;5023257;28;20002;-57
2022/10/16 07:33:30;;;;;;;6.75;3.10;;;;;;;11.60;100.00;101280.88;5038858;28;20022;-59
2022/10/16 07:35:55;;;;;;;6.38;2.78;;;;;;;11.68;100.00;101287.47;5035660;28;20024;-60
2022/10/16 07:38:21;;;;;;;5.40;2.70;;;;;;;11.73;100.00;101290.63;5044620;28;20245;-59
2022/10/16 07:40:47;;;;;;;7.22;2.90;;;;;;;11.79;100.00;101300.81;5040527;28;20022;-58
2022/10/16 07:43:12;;;;;;;6.72;3.00;;;;;;;11.85;100.00;101303.00;5045376;28;20009;-59
2022/10/16 07:45:49;;;;;;;6.82;3.00;;;;;;;11.94;100.00;101306.81;5045295;28;20033;-58
2022/10/16 07:48:15;;;;;;;6.47;3.00;;;;;;;12.03;100.00;101306.97;5047250;28;20018;-60
2022/10/16 07:50:41;;;;;;;13.30;3.05;;;;;;;12.16;100.00;101316.72;5044953;28;20076;-59
2022/10/16 07:53:06;;;;;;;7.22;3.20;;;;;;;12.24;100.00;101317.00;5044743;28;20025;-59
2022/10/16 07:55:31;;;;;;;5.60;2.78;;;;;;;12.38;100.00;101319.44;5047268;28;20013;-59
2022/10/16 07:57:57;;;;;;;6.43;3.00;;;;;;;12.48;100.00;101326.72;5041310;28;20328;-59
2022/10/16 08:00:22;;;;;;;6.70;2.95;;;;;;;12.59;100.00;101332.09;5045039;28;20034;-59
2022/10/16 08:02:47;;;;;;;4.97;2.67;;;;;;;12.71;100.00;101328.47;5040517;28;20191;-59
2022/10/16 08:05:13;;;;;;;8.25;3.10;;;;;;;12.83;100.00;101331.13;5039588;28;20041;-59
2022/10/16 08:07:38;;;;;;;5.95;2.67;;;;;;;12.92;100.00;101327.72;5056935;28;20090;-59
2022/10/16 08:10:04;;;;;;;4.63;2.60;;;;;;;13.07;100.00;101344.34;5042384;28;20068;-60
2022/10/16 08:12:29;;;;;;;4.15;2.67;;;;;;;13.14;100.00;101345.56;5044947;28;20330;-60
2022/10/16 08:14:54;;;;;;;8.40;2.95;;;;;;;13.24;100.00;101351.00;5059856;28;20120;-61
2022/10/16 08:17:20;;;;;;;5.60;2.78;;;;;;;13.33;100.00;101353.81;5070719;28;20072;-60
2022/10/16 08:19:46;;;;;;;7.03;2.60;;;;;;;13.51;100.00;101354.16;5067579;28;20022;-61
2022/10/16 08:22:11;;;;;;;6.00;2.55;;;;;;;13.62;100.00;101358.63;5061743;28;20048;-60
2022/10/16 08:24:37;;;;;;;6.88;2.90;;;;;;;13.70;100.00;101363.34;5039774;28;20067;-59
2022/10/16 08:27:02;;;;;;;5.10;2.70;;;;;;;13.82;99.83;101370.34;5036849;28;20089;-59
2022/10/16 08:29:28;;;;;;;4.05;2.58;;;;;;;13.90;99.61;101366.19;5040374;28;20037;-59
2022/10/16 08:31:53;;;;;;;4.85;2.40;;;;;;;13.99;99.04;101365.41;5038339;28;20112;-59
2022/10/16 08:34:18;;;;;;;4.63;2.25;;;;;;;14.10;98.47;101373.41;5044275;28;20032;-59
2022/10/16 08:36:44;;;;;;;5.22;2.22;;;;;;;14.22;98.46;101380.41;5037747;28;20033;-59
2022/10/16 08:39:09;;;;;;;4.80;2.20;;;;;;;14.34;97.21;101386.53;5039309;28;20036;-60
2022/10/16 08:41:56;;;;;;;4.65;2.75;;;;;;;14.47;96.31;101385.50;5049759;28;20018;-58
2022/10/16 08:44:33;;;;;;;5.97;3.15;;;;;;;14.50;94.77;101394.09;5062271;28;20016;-58
2022/10/16 08:47:10;;;;;;;3.80;2.10;;;;;;;14.59;95.03;101396.03;5069941;28;20030;-59
2022/10/16 08:49:37;;;;;;;7.13;2.35;;;;;;;14.65;94.41;101386.63;5068101;28;20100;-59
2022/10/16 08:52:03;;;;;;;11.15;2.60;;;;;;;14.69;94.01;101396.09;5062106;28;20041;-58
2022/10/16 08:54:40;;;;;;;7.15;2.25;;;;;;;14.77;93.95;101403.44;5043074;28;20034;-58
2022/10/16 08:57:21;;;;;;;4.97;2.20;;;;;;;14.80;94.90;101405.88;5040979;28;20011;-58
2022/10/16 08:59:46;;;;;;;5.38;1.90;;;;;;;14.85;92.45;101395.63;5048655;28;20033;-56
2022/10/16 09:02:32;;;;;;;9.75;2.05;;;;;;;14.86;91.78;101405.34;5033480;28;20041;-58
2022/10/16 09:05:15;;;;;;;6.38;2.10;;;;;;;14.97;91.85;101405.28;5040162;28;20041;-58
2022/10/16 09:07:43;;;;;;;9.75;2.42;;;;;;;15.04;89.79;101415.44;5045931;28;20013;-60
2022/10/16 09:10:22;;;;;;;7.22;1.90;;;;;;;15.13;89.52;101411.97;5042596;28;20042;-58
2022/10/16 09:13:21;;;;;;;8.88;2.30;;;;;;;15.27;90.02;101422.31;5044686;28;20021;-59
2022/10/16 09:15:53;;;;;;;7.03;2.17;;;;;;;15.38;87.19;101423.22;5047033;28;20056;-59
2022/10/16 09:18:45;;;;;;;7.25;2.42;;;;;;;15.59;89.31;101417.78;5052078;28;20017;-58
2022/10/16 09:21:19;;;;;;;8.15;2.45;;;;;;;15.76;87.15;101427.88;5057093;28;20014;-57
2022/10/16 09:23:45;;;;;;;7.20;1.73;;;;;;;15.88;85.30;101429.44;5044471;28;20046;-58
2022/10/16 09:26:14;;;;;;;5.20;2.00;;;;;;;15.89;84.42;101424.94;5047252;28;20049;-58
2022/10/16 09:28:40;;;;;;;6.28;2.05;;;;;;;16.03;84.49;101423.69;5046620;28;20018;-58
2022/10/16 09:31:05;;;;;;;7.10;2.05;;;;;;;16.05;82.70;101427.94;5041152;28;20051;-58
2022/10/16 09:33:36;;;;;;;4.07;1.63;;;;;;;16.22;82.95;101437.13;5040391;28;20105;-60
2022/10/16 09:36:04;;;;;;;6.68;2.00;;;;;;;16.36;81.72;101441.22;5055212;28;20088;-59
2022/10/16 09:38:33;;;;;;;6.45;2.00;;;;;;;16.38;81.53;101443.75;5043352;28;20045;-59
2022/10/16 09:41:18;;;;;;;7.38;1.83;;;;;;;16.48;82.85;101439.22;5043447;28;20093;-59
2022/10/16 09:44:03;;;;;;;8.23;1.80;;;;;;;16.55;82.28;101434.16;5042968;28;20030;-59
2022/10/16 09:46:34;;;;;;;8.68;2.20;;;;;;;16.58;81.17;101439.22;5041748;28;20018;-59
2022/10/16 09:49:05;;;;;;;7.95;2.08;;;;;;;16.57;80.07;101434.84;5037197;28;20029;-59
2022/10/16 09:51:36;;;;;;;8.05;2.15;;;;;;;16.59;79.19;101430.19;5042851;28;20030;-59
2022/10/16 09:54:14;;;;;;;7.95;2.03;;;;;;;16.66;79.12;101434.00;5049453;28;20036;-59
2022/10/16 09:56:40;;;;;;;4.60;1.70;;;;;;;16.74;78.23;101444.03;5042307;28;20013;-58
2022/10/16 09:59:13;;;;;;;6.80;2.00;;;;;;;16.72;78.31;101448.66;5044790;28;20018;-59
2022/10/16 10:01:50;;;;;;;8.45;2.13;;;;;;;16.78;78.96;101442.72;5046595;28;20033;-59
2022/10/16 10:04:17;;;;;;;6.45;1.80;;;;;;;16.89;76.04;101450.66;5045479;28;20041;-59
2022/10/16 10:06:54;;;;;;;5.30;1.92;;;;;;;17.01;77.58;101457.53;5046531;28;20033;-59
2022/10/16 10:09:38;;;;;;;6.85;2.03;;;;;;;17.19;77.71;101463.00;5045781;28;20013;-58
2022/10/16 10:12:16;;;;;;;8.25;2.40;;;;;;;17.20;76.32;101456.66;5057650;28;20025;-58
2022/10/16 10:14:46;;;;;;;8.32;2.17;;;;;;;17.08;73.80;101454.28;5060415;28;20055;-59
2022/10/16 10:17:28;;;;;;;12.60;2.38;;;;;;;17.20;75.81;101459.34;5060411;28;20085;-58
2022/10/16 10:20:02;;;;;;;11.00;2.67;;;;;;;17.24;75.16;101459.06;5054220;28;20036;-58
2022/10/16 10:22:44;;;;;;;11.70;2.08;;;;;;;17.44;74.00;101462.53;5062403;28;20092;-58
2022/10/16 10:25:18;;;;;;;9.00;2.25;;;;;;;17.38;73.84;101469.31;5057722;28;20045;-58
2022/10/16 10:28:02;;;;;;;9.20;2.15;;;;;;;17.46;75.44;101473.94;5057606;28;20041;-59
2022/10/16 10:30:33;;;;;;;10.77;2.30;;;;;;;17.43;73.60;101466.19;5061013;28;20022;-58
2022/10/16 10:33:18;;;;;;;10.88;2.97;;;;;;;17.52;74.15;101479.59;5059293;28;20045;-59
2022/10/16 10:36:02;;;;;;;12.23;2.50;;;;;;;17.67;74.50;101479.06;5059986;28;20013;-59
2022/10/16 10:39:15;;;;;;;9.35;2.20;;;;;;;17.77;72.52;101482.59;5054657;28;20051;-57
2022/10/16 10:41:59;;;;;;;12.90;2.22;;;;;;;17.96;73.23;101472.75;5058309;28;20064;-59
2022/10/16 10:44:43;;;;;;;9.32;2.50;;;;;;;18.08;72.63;101479.59;5065545;28;20017;-58
2022/10/16 10:47:28;;;;;;;11.77;2.45;;;;;;;18.12;71.62;101483.69;5058600;28;20046;-58
2022/10/16 10:50:21;;;;;;;10.05;2.60;;;;;;;18.22;72.27;101481.78;5066905;28;20034;-57
2022/10/16 10:53:05;;;;;;;9.77;1.95;;;;;;;18.37;71.70;101484.78;5058162;28;20025;-58
2022/10/16 10:56:17;;;;;;;11.70;2.95;;;;;;;18.42;70.17;101493.25;5059681;28;20029;-59
2022/10/16 10:58:57;;;;;;;10.10;2.67;;;;;;;18.31;68.75;101496.16;5050400;28;20033;-58
2022/10/16 11:01:45;;;;;;;12.85;2.42;;;;;;;18.33;69.88;101474.47;5072894;28;20013;-58
2022/10/16 11:04:27;;;;;;;9.55;2.35;;;;;;;18.36;68.22;101487.63;5065778;28;20089;-58
2022/10/16 11:07:01;;;;;;;10.57;2.50;;;;;;;18.25;67.18;101494.94;5057191;28;20135;-58
2022/10/16 11:09:33;;;;;;;12.05;2.95;;;;;;;18.17;66.36;101492.16;5067004;28;20033;-58
2022/10/16 11:12:41;;;;;;;11.82;2.50;;;;;;;18.30;68.24;101495.31;5057293;28;20025;-59
2022/10/16 11:15:15;;;;;;;10.48;2.67;;;;;;;18.22;66.62;101494.34;5060156;28;20041;-57
2022/10/16 11:17:57;;;;;;;13.05;2.63;;;;;;;18.06;63.82;101487.81;5057537;28;20022;-58
2022/10/16 11:20:37;;;;;;;10.82;2.88;;;;;;;18.05;67.66;101493.34;5053898;28;20032;-58
2022/10/16 11:23:14;;;;;;;15.43;2.97;;;;;;;18.00;66.57;101501.00;5059767;28;20033;-57
2022/10/16 11:25:42;;;;;;;10.45;2.72;;;;;;;17.94;65.23;101491.72;5059362;28;20033;-58
2022/10/16 11:28:07;;;;;;;10.50;2.60;;;;;;;18.07;65.54;101491.38;5057879;28;20077;-57
2022/10/16 11:30:45;;;;;;;13.53;3.00;;;;;;;18.14;68.23;101487.06;5059548;28;20024;-58